Time;durP1;ratioP1;P1;durP2;ratioP2;P2;SDS_P1;SDS_P2;PMS_P1;PMS_P2;Temp;Humidity;BMP_temperature;BMP_pressure;BME280_temperature;BME280_humidity;BME280_pressure;Samples;Min_cycle;Max_cycle;Signal;HPM_P1;HPM_P2
2021/07/05 00:00:43;;;;;;;20.42;14.20;;;;;;;;;;6220189;23;20051;-82
2021/07/05 00:03:10;;;;;;;29.42;16.15;;;;;;;;;;6247925;23;20382;-82
2021/07/05 00:05:36;;;;;;;26.67;16.05;;;;;;;;;;6246920;23;20119;-82
2021/07/05 00:08:05;;;;;;;29.10;16.75;;;;;;;;;;6220292;23;20036;-82
2021/07/05 00:10:38;;;;;;;23.75;18.10;;;;;;;;;;6245207;23;20028;-82
2021/07/05 00:13:05;;;;;;;33.05;18.35;;;;;;;;;;6221724;23;20024;-82
2021/07/05 00:15:33;;;;;;;31.70;18.05;;;;;;;;;;6222747;23;20028;-82
2021/07/05 00:18:01;;;;;;;30.02;18.75;;;;;;;;;;6221657;23;20425;-83
2021/07/05 00:20:29;;;;;;;31.25;19.02;;;;;;;;;;6220479;23;20017;-82
2021/07/05 00:22:56;;;;;;;27.73;18.73;;;;;;;;;;6247590;23;20024;-83
2021/07/05 00:25:23;;;;;;;31.75;19.65;;;;;;;;;;6247774;23;20039;-80
2021/07/05 00:27:50;;;;;;;26.13;18.58;;;;;;;;;;6247009;23;20024;-81
2021/07/05 00:30:21;;;;;;;34.08;20.35;;;;;;;;;;6247014;23;20035;-82
2021/07/05 00:32:57;;;;;;;30.55;19.75;;;;;;;;;;6247471;23;20148;-82
2021/07/05 00:35:26;;;;;;;28.63;20.83;;;;;;;;;;6222574;23;20032;-83
2021/07/05 00:37:53;;;;;;;35.05;21.15;;;;;;;;;;6246771;23;20024;-82
2021/07/05 00:40:20;;;;;;;33.90;21.70;;;;;;;;;;6248410;23;20047;-81
2021/07/05 00:42:47;;;;;;;33.00;20.55;;;;;;;;;;6220077;23;20031;-81
2021/07/05 00:45:15;;;;;;;36.80;22.20;;;;;;;;;;6221684;23;20031;-84
2021/07/05 00:47:41;;;;;;;38.17;21.75;;;;;;;;;;6220650;23;20024;-81
2021/07/05 00:50:09;;;;;;;40.45;24.80;;;;;;;;;;6247536;23;20027;-82
2021/07/05 00:52:37;;;;;;;30.55;20.90;;;;;;;;;;6221491;23;20078;-82
2021/07/05 00:55:05;;;;;;;32.42;22.80;;;;;;;;;;6248929;23;20028;-81
2021/07/05 00:57:31;;;;;;;36.85;22.98;;;;;;;;;;6224074;23;20111;-82
2021/07/05 01:00:05;;;;;;;38.83;22.90;;;;;;;;;;6250343;23;20039;-82
2021/07/05 01:02:32;;;;;;;37.72;23.30;;;;;;;;;;6222577;23;20034;-82
2021/07/05 01:04:58;;;;;;;38.38;23.42;;;;;;;;;;6247370;23;20024;-82
2021/07/05 01:07:25;;;;;;;32.80;23.55;;;;;;;;;;6247528;23;20032;-82
2021/07/05 01:09:52;;;;;;;31.90;24.13;;;;;;;;;;6246973;23;20198;-82
2021/07/05 01:12:18;;;;;;;37.05;23.48;;;;;;;;;;6247393;23;20035;-82
2021/07/05 01:14:46;;;;;;;42.80;25.42;;;;;;;;;;6222006;23;20099;-83
2021/07/05 01:17:13;;;;;;;37.20;23.45;;;;;;;;;;6221103;23;20062;-83
2021/07/05 01:19:42;;;;;;;33.70;23.77;;;;;;;;;;6222067;23;20058;-83
2021/07/05 01:22:09;;;;;;;32.42;23.35;;;;;;;;;;6249006;23;20047;-82
2021/07/05 01:24:35;;;;;;;33.42;22.38;;;;;;;;;;6245200;23;20016;-83
2021/07/05 01:27:03;;;;;;;36.55;22.75;;;;;;;;;;6245792;23;20024;-83
2021/07/05 01:29:29;;;;;;;36.97;23.58;;;;;;;;;;6246279;23;20286;-83
2021/07/05 01:31:56;;;;;;;33.42;21.75;;;;;;;;;;6246254;23;20047;-83
2021/07/05 01:34:23;;;;;;;38.38;22.33;;;;;;;;;;6220590;23;20032;-83
2021/07/05 01:36:56;;;;;;;39.88;22.63;;;;;;;;;;6247077;23;20081;-82
2021/07/05 01:39:22;;;;;;;34.33;21.33;;;;;;;;;;6246442;23;20032;-83
2021/07/05 01:41:51;;;;;;;36.75;20.95;;;;;;;;;;6221871;23;20029;-83
2021/07/05 01:44:18;;;;;;;36.25;21.15;;;;;;;;;;6246747;23;20227;-83
2021/07/05 01:46:45;;;;;;;31.38;20.65;;;;;;;;;;6245960;23;20078;-82
2021/07/05 01:49:11;;;;;;;38.63;21.42;;;;;;;;;;6248631;23;20024;-83
2021/07/05 01:51:38;;;;;;;31.52;21.02;;;;;;;;;;6249399;23;20188;-83
2021/07/05 01:54:05;;;;;;;35.65;23.67;;;;;;;;;;6222832;23;20116;-83
2021/07/05 01:56:32;;;;;;;30.67;20.85;;;;;;;;;;6248334;23;20028;-80
2021/07/05 01:58:59;;;;;;;36.33;21.15;;;;;;;;;;6247944;23;20032;-82
2021/07/05 02:01:44;;;;;;;35.25;20.20;;;;;;;;;;6226275;23;20028;-82
2021/07/05 02:04:10;;;;;;;30.25;21.27;;;;;;;;;;6225678;23;20047;-82
2021/07/05 02:06:37;;;;;;;29.15;20.08;;;;;;;;;;6252321;23;20034;-82
2021/07/05 02:09:05;;;;;;;24.67;18.85;;;;;;;;;;6249034;23;20028;-82
2021/07/05 02:11:35;;;;;;;28.63;20.13;;;;;;;;;;6251183;23;20039;-82
2021/07/05 02:14:05;;;;;;;36.88;20.83;;;;;;;;;;6224073;23;20441;-82
2021/07/05 02:16:32;;;;;;;27.40;19.77;;;;;;;;;;6247286;23;20213;-82
2021/07/05 02:19:00;;;;;;;30.55;19.30;;;;;;;;;;6247056;23;20059;-82
2021/07/05 02:21:27;;;;;;;30.35;19.85;;;;;;;;;;6252488;23;20035;-81
2021/07/05 02:23:53;;;;;;;29.90;20.33;;;;;;;;;;6252676;23;20034;-82
2021/07/05 02:26:32;;;;;;;24.00;19.08;;;;;;;;;;6226792;23;20024;-82
2021/07/05 02:28:59;;;;;;;38.13;21.48;;;;;;;;;;6253885;23;20024;-83
2021/07/05 02:31:25;;;;;;;30.75;18.88;;;;;;;;;;6227553;23;20072;-82
2021/07/05 02:33:52;;;;;;;31.90;20.70;;;;;;;;;;6226344;23;20024;-82
2021/07/05 02:36:28;;;;;;;33.03;20.95;;;;;;;;;;6256666;23;20028;-82
2021/07/05 02:38:54;;;;;;;33.10;22.73;;;;;;;;;;6228635;23;20028;-82
2021/07/05 02:41:23;;;;;;;33.03;22.65;;;;;;;;;;6250114;23;20028;-82
2021/07/05 02:43:50;;;;;;;35.13;21.70;;;;;;;;;;6249669;23;20107;-82
2021/07/05 02:46:16;;;;;;;33.33;21.98;;;;;;;;;;6222157;23;20024;-82
2021/07/05 02:48:43;;;;;;;37.83;22.40;;;;;;;;;;6222304;23;20028;-82
2021/07/05 02:51:13;;;;;;;31.30;21.40;;;;;;;;;;6222787;23;20031;-82
2021/07/05 02:53:39;;;;;;;29.08;21.10;;;;;;;;;;6222501;23;20052;-82
2021/07/05 02:56:09;;;;;;;35.38;22.05;;;;;;;;;;6224146;23;20039;-82
2021/07/05 02:58:37;;;;;;;32.72;22.63;;;;;;;;;;6249510;23;20028;-82
2021/07/05 03:01:07;;;;;;;29.38;20.98;;;;;;;;;;6248772;23;20028;-83
2021/07/05 03:03:34;;;;;;;27.42;22.00;;;;;;;;;;6249754;23;20203;-83
2021/07/05 03:06:01;;;;;;;32.40;20.95;;;;;;;;;;6222841;23;20035;-83
2021/07/05 03:08:27;;;;;;;31.40;20.15;;;;;;;;;;6222034;23;20024;-83
2021/07/05 03:10:54;;;;;;;31.25;21.83;;;;;;;;;;6222712;23;20028;-83
2021/07/05 03:13:21;;;;;;;33.13;23.05;;;;;;;;;;6222250;23;20024;-83
2021/07/05 03:15:48;;;;;;;38.90;21.95;;;;;;;;;;6248895;23;20390;-83
2021/07/05 03:18:18;;;;;;;34.40;23.65;;;;;;;;;;6250406;23;20044;-83
2021/07/05 03:20:47;;;;;;;32.83;21.02;;;;;;;;;;6222632;23;20372;-84
2021/07/05 03:23:15;;;;;;;32.38;22.30;;;;;;;;;;6251129;23;20032;-83
2021/07/05 03:25:51;;;;;;;38.30;23.35;;;;;;;;;;6251845;23;20413;-82
2021/07/05 03:28:18;;;;;;;33.55;21.95;;;;;;;;;;6235781;23;20028;-83
2021/07/05 03:30:46;;;;;;;29.13;20.98;;;;;;;;;;6263150;23;20023;-82
2021/07/05 03:33:13;;;;;;;31.90;19.95;;;;;;;;;;6228960;23;20390;-83
2021/07/05 03:35:40;;;;;;;31.02;21.20;;;;;;;;;;6223255;23;20039;-83
2021/07/05 03:38:07;;;;;;;29.83;21.30;;;;;;;;;;6249264;23;20028;-83
2021/07/05 03:40:38;;;;;;;34.30;21.75;;;;;;;;;;6222604;23;20036;-83
2021/07/05 03:43:05;;;;;;;31.20;20.85;;;;;;;;;;6222066;23;20070;-83
2021/07/05 03:45:34;;;;;;;33.97;22.77;;;;;;;;;;6248975;23;20024;-83
2021/07/05 03:48:01;;;;;;;29.17;21.45;;;;;;;;;;6250079;23;20361;-83
2021/07/05 03:50:45;;;;;;;32.63;22.15;;;;;;;;;;6248364;23;20311;-83
2021/07/05 03:53:12;;;;;;;37.13;22.98;;;;;;;;;;6222835;23;20390;-82
2021/07/05 03:55:39;;;;;;;33.03;21.98;;;;;;;;;;6222210;23;20039;-82
2021/07/05 03:58:05;;;;;;;30.73;21.85;;;;;;;;;;6222755;23;20032;-81
2021/07/05 04:00:33;;;;;;;34.30;23.98;;;;;;;;;;6222363;23;20141;-82
2021/07/05 04:03:00;;;;;;;35.00;23.35;;;;;;;;;;6247783;23;20082;-82
2021/07/05 04:05:27;;;;;;;34.17;23.08;;;;;;;;;;6221846;23;20268;-82
2021/07/05 04:08:09;;;;;;;31.98;22.80;;;;;;;;;;6220600;23;20031;-83
2021/07/05 04:10:36;;;;;;;30.60;21.65;;;;;;;;;;6221327;23;20028;-82
2021/07/05 04:13:06;;;;;;;33.17;22.60;;;;;;;;;;6246871;23;20023;-81
2021/07/05 04:15:42;;;;;;;34.70;23.85;;;;;;;;;;6219782;23;20028;-84
2021/07/05 04:18:09;;;;;;;36.45;23.33;;;;;;;;;;6223463;23;20046;-81
2021/07/05 04:20:36;;;;;;;35.13;22.95;;;;;;;;;;6222258;23;20027;-81
2021/07/05 04:23:03;;;;;;;29.48;23.38;;;;;;;;;;6246799;23;20032;-81
2021/07/05 04:25:34;;;;;;;36.55;23.13;;;;;;;;;;6218417;23;20052;-81
2021/07/05 04:28:04;;;;;;;40.97;24.35;;;;;;;;;;6244919;23;20402;-81
2021/07/05 04:30:40;;;;;;;32.00;23.20;;;;;;;;;;6244635;23;20035;-81
2021/07/05 04:33:06;;;;;;;31.27;23.52;;;;;;;;;;6244813;23;20051;-80
2021/07/05 04:35:33;;;;;;;35.78;24.67;;;;;;;;;;6244398;23;20059;-81
2021/07/05 04:38:00;;;;;;;36.42;24.05;;;;;;;;;;6244040;23;20039;-80
2021/07/05 04:40:29;;;;;;;40.10;25.40;;;;;;;;;;6217622;23;20059;-81
2021/07/05 04:42:56;;;;;;;35.20;24.98;;;;;;;;;;6246056;23;20066;-81
2021/07/05 04:45:25;;;;;;;39.40;25.55;;;;;;;;;;6245699;23;20063;-80
2021/07/05 04:47:53;;;;;;;37.83;25.20;;;;;;;;;;6246213;23;20024;-81
2021/07/05 04:50:19;;;;;;;37.53;26.10;;;;;;;;;;6219678;23;20024;-82
2021/07/05 04:52:45;;;;;;;40.60;27.23;;;;;;;;;;6216982;23;20382;-81
2021/07/05 04:55:19;;;;;;;34.35;26.77;;;;;;;;;;6245070;23;20272;-81
2021/07/05 04:57:46;;;;;;;44.80;27.00;;;;;;;;;;6241951;23;20032;-81
2021/07/05 05:00:18;;;;;;;35.05;24.33;;;;;;;;;;6242345;23;20024;-80
2021/07/05 05:02:57;;;;;;;35.97;26.00;;;;;;;;;;6240549;23;20107;-82
2021/07/05 05:05:24;;;;;;;36.90;27.02;;;;;;;;;;6241993;23;20050;-81
2021/07/05 05:07:57;;;;;;;35.35;26.27;;;;;;;;;;6253482;23;20047;-85
2021/07/05 05:10:26;;;;;;;36.33;25.17;;;;;;;;;;6243948;23;20111;-85
2021/07/05 05:12:53;;;;;;;36.08;26.85;;;;;;;;;;6216412;23;20051;-83
2021/07/05 05:15:23;;;;;;;32.17;24.90;;;;;;;;;;6219425;23;20032;-85
2021/07/05 05:17:53;;;;;;;35.15;26.15;;;;;;;;;;6217882;23;20386;-83
2021/07/05 05:20:21;;;;;;;36.42;25.42;;;;;;;;;;6242142;23;20375;-83
2021/07/05 05:22:48;;;;;;;35.40;24.30;;;;;;;;;;6242402;23;20028;-83
2021/07/05 05:25:18;;;;;;;31.70;24.20;;;;;;;;;;6242815;23;20024;-84
2021/07/05 05:27:46;;;;;;;34.72;26.45;;;;;;;;;;6251399;23;20387;-83
2021/07/05 05:30:14;;;;;;;30.00;24.77;;;;;;;;;;6232782;23;20024;-83
2021/07/05 05:32:41;;;;;;;33.88;24.50;;;;;;;;;;6254260;23;20024;-84
2021/07/05 05:35:08;;;;;;;39.35;27.30;;;;;;;;;;6244877;23;20040;-84
2021/07/05 05:37:35;;;;;;;34.92;25.42;;;;;;;;;;6247663;23;20633;-84
2021/07/05 05:40:03;;;;;;;35.00;25.77;;;;;;;;;;6219933;23;20122;-83
2021/07/05 05:42:39;;;;;;;31.08;24.75;;;;;;;;;;6245740;23;20212;-84
2021/07/05 05:45:07;;;;;;;29.38;23.88;;;;;;;;;;6218002;23;20035;-84
2021/07/05 05:47:33;;;;;;;31.55;23.88;;;;;;;;;;6219027;23;20028;-84
2021/07/05 05:50:00;;;;;;;32.13;24.92;;;;;;;;;;6247011;23;20095;-85
2021/07/05 05:52:32;;;;;;;31.40;24.58;;;;;;;;;;6245094;23;20024;-85
2021/07/05 05:54:59;;;;;;;33.33;24.83;;;;;;;;;;6253024;22;20028;-84
2021/07/05 05:57:28;;;;;;;31.80;25.23;;;;;;;;;;6232884;22;20008;-85
2021/07/05 05:59:56;;;;;;;31.83;25.55;;;;;;;;;;6223368;23;20020;-85
2021/07/05 06:02:24;;;;;;;32.60;24.70;;;;;;;;;;6215929;23;20063;-85
2021/07/05 06:04:50;;;;;;;33.25;25.65;;;;;;;;;;6240115;23;20024;-85
2021/07/05 06:07:17;;;;;;;30.80;24.75;;;;;;;;;;6215585;23;20027;-85
2021/07/05 06:09:43;;;;;;;37.00;27.60;;;;;;;;;;6215039;23;20095;-84
2021/07/05 06:12:14;;;;;;;35.47;26.02;;;;;;;;;;6215049;23;20071;-85
2021/07/05 06:14:40;;;;;;;33.17;24.58;;;;;;;;;;6239690;23;20082;-85
2021/07/05 06:17:10;;;;;;;32.60;24.52;;;;;;;;;;6217387;23;20042;-86
2021/07/05 06:19:37;;;;;;;32.58;24.08;;;;;;;;;;6216883;23;20025;-85
2021/07/05 06:22:12;;;;;;;27.48;21.92;;;;;;;;;;6216838;23;20115;-84
2021/07/05 06:24:39;;;;;;;29.92;21.13;;;;;;;;;;6242933;23;20383;-85
2021/07/05 06:27:06;;;;;;;26.77;21.90;;;;;;;;;;6246372;23;20079;-85
2021/07/05 06:29:34;;;;;;;22.60;18.88;;;;;;;;;;6244831;23;20471;-86
2021/07/05 06:32:04;;;;;;;23.58;20.08;;;;;;;;;;6220264;23;20082;-85
2021/07/05 06:34:39;;;;;;;18.63;16.63;;;;;;;;;;6219657;23;20406;-86
2021/07/05 06:37:21;;;;;;;23.40;14.77;;;;;;;;;;6218958;23;20086;-87
2021/07/05 06:39:48;;;;;;;20.00;16.38;;;;;;;;;;6242488;23;20079;-85
2021/07/05 06:42:18;;;;;;;20.67;16.20;;;;;;;;;;6243687;23;20078;-85
2021/07/05 06:44:51;;;;;;;23.83;16.48;;;;;;;;;;6219686;23;20110;-86
2021/07/05 06:47:17;;;;;;;22.45;18.73;;;;;;;;;;6219518;23;20633;-86
2021/07/05 06:49:44;;;;;;;20.30;17.25;;;;;;;;;;6219288;23;20347;-86
2021/07/05 06:52:27;;;;;;;22.10;17.17;;;;;;;;;;6224642;23;20024;-86
2021/07/05 06:55:12;;;;;;;18.35;16.40;;;;;;;;;;6244965;23;20614;-86
2021/07/05 06:58:04;;;;;;;22.88;17.52;;;;;;;;;;6243056;23;20390;-86
2021/07/05 07:00:45;;;;;;;21.63;16.40;;;;;;;;;;6220332;23;20020;-85
2021/07/05 07:14:41;;;;;;;17.33;15.40;;;;;;;;;;5988956;23;20020;-86
2021/07/05 07:18:21;;;;;;;;;;;;;;;;;;;;;
2021/07/05 07:22:21;;;;;;;17.45;14.60;;;;;;;;;;6091560;23;20057;-86
2021/07/05 07:29:30;;;;;;;;;;;;;;;;;;;;;
2021/07/05 07:56:36;;;;;;;14.40;10.38;;;;;;;;;;5840287;24;20057;-89
2021/07/05 08:03:10;;;;;;;12.27;10.18;;;;;;;;;;5981122;23;20023;-86
2021/07/05 08:10:30;;;;;;;;;;;;;;;;;;;;;
2021/07/05 08:16:21;;;;;;;18.88;13.38;;;;;;;;;;6011872;23;20420;-87
2021/07/05 08:30:28;;;;;;;10.85;7.93;;;;;;;;;;6022563;23;20031;-87
2021/07/05 08:33:20;;;;;;;14.55;8.95;;;;;;;;;;6089462;23;20041;-86
2021/07/05 08:43:19;;;;;;;13.32;8.32;;;;;;;;;;6178488;23;20020;-87
2021/07/05 08:46:27;;;;;;;19.08;10.10;;;;;;;;;;6147848;23;20072;-86
2021/07/05 08:49:32;;;;;;;20.27;11.45;;;;;;;;;;6180027;23;20328;-87
2021/07/05 08:52:26;;;;;;;15.15;9.10;;;;;;;;;;6153345;23;20016;-87
2021/07/05 08:55:15;;;;;;;23.75;12.70;;;;;;;;;;6208993;23;20036;-86
2021/07/05 08:58:01;;;;;;;18.08;13.80;;;;;;;;;;6209527;23;20028;-87
2021/07/05 09:00:35;;;;;;;17.27;9.32;;;;;;;;;;6209946;23;20238;-87
2021/07/05 09:03:37;;;;;;;17.05;8.45;;;;;;;;;;6212582;23;20268;-87
2021/07/05 09:06:25;;;;;;;9.55;6.82;;;;;;;;;;6210132;22;20029;-86
2021/07/05 09:08:57;;;;;;;15.00;6.60;;;;;;;;;;6211637;23;20225;-87
2021/07/05 09:11:35;;;;;;;10.05;5.65;;;;;;;;;;6210337;23;20073;-87
2021/07/05 09:14:26;;;;;;;8.27;6.28;;;;;;;;;;6213148;23;20025;-87
2021/07/05 09:17:14;;;;;;;7.10;5.30;;;;;;;;;;6211385;23;20029;-87
2021/07/05 09:19:41;;;;;;;11.80;5.40;;;;;;;;;;6220526;22;20020;-85
2021/07/05 09:22:08;;;;;;;10.00;6.72;;;;;;;;;;6228513;23;20025;-86
2021/07/05 09:24:36;;;;;;;12.73;8.02;;;;;;;;;;6224251;22;20350;-83
2021/07/05 09:27:12;;;;;;;16.83;9.25;;;;;;;;;;6211033;23;20277;-83
2021/07/05 09:29:39;;;;;;;13.25;9.77;;;;;;;;;;6211242;23;20127;-82
2021/07/05 09:32:07;;;;;;;17.05;9.45;;;;;;;;;;6207182;23;20024;-80
2021/07/05 09:34:38;;;;;;;12.23;9.25;;;;;;;;;;6209116;23;20354;-81
2021/07/05 09:37:10;;;;;;;12.88;9.25;;;;;;;;;;6209961;23;20033;-81
2021/07/05 09:39:37;;;;;;;10.85;8.27;;;;;;;;;;6207440;23;20032;-81
2021/07/05 09:42:07;;;;;;;13.75;9.55;;;;;;;;;;6208157;23;20029;-82
2021/07/05 09:44:38;;;;;;;9.30;8.10;;;;;;;;;;6211100;23;20032;-82
2021/07/05 09:47:17;;;;;;;14.27;8.68;;;;;;;;;;6210976;23;20040;-80
2021/07/05 09:49:46;;;;;;;15.10;10.38;;;;;;;;;;6215382;23;20020;-83
2021/07/05 09:52:24;;;;;;;13.88;8.75;;;;;;;;;;6209149;23;20032;-84
2021/07/05 09:54:52;;;;;;;14.05;10.93;;;;;;;;;;6207385;23;20024;-82
2021/07/05 09:57:25;;;;;;;16.67;11.02;;;;;;;;;;6211221;23;20233;-82
2021/07/05 09:59:53;;;;;;;12.57;11.27;;;;;;;;;;6212064;23;20028;-82
2021/07/05 10:02:20;;;;;;;12.25;11.07;;;;;;;;;;6213969;23;20035;-82
2021/07/05 10:04:48;;;;;;;12.93;10.13;;;;;;;;;;6211527;23;20591;-81
2021/07/05 10:07:14;;;;;;;14.27;11.55;;;;;;;;;;6214230;23;20141;-81
2021/07/05 10:09:48;;;;;;;15.52;13.93;;;;;;;;;;6214828;23;20136;-82
2021/07/05 10:12:14;;;;;;;21.05;13.15;;;;;;;;;;6215450;23;20028;-81
2021/07/05 10:14:41;;;;;;;16.92;12.52;;;;;;;;;;6210614;23;20025;-84
2021/07/05 10:17:14;;;;;;;15.45;12.88;;;;;;;;;;6213425;23;20397;-82
2021/07/05 10:19:41;;;;;;;17.85;14.63;;;;;;;;;;6210640;23;20029;-82
2021/07/05 10:22:14;;;;;;;17.75;15.98;;;;;;;;;;6212356;23;20037;-82
2021/07/05 10:24:42;;;;;;;17.70;15.80;;;;;;;;;;6210847;23;20028;-82
2021/07/05 10:27:10;;;;;;;21.70;15.73;;;;;;;;;;6213227;23;20036;-82
2021/07/05 10:29:40;;;;;;;18.17;12.52;;;;;;;;;;6212098;23;20040;-82
2021/07/05 10:32:07;;;;;;;14.38;12.77;;;;;;;;;;6213389;23;20032;-81
2021/07/05 10:34:35;;;;;;;9.48;8.57;;;;;;;;;;6212136;23;20274;-83
2021/07/05 10:37:04;;;;;;;8.40;7.35;;;;;;;;;;6210675;23;20241;-83
2021/07/05 10:39:31;;;;;;;9.00;5.40;;;;;;;;;;6214312;23;20043;-82
2021/07/05 10:41:58;;;;;;;5.80;5.20;;;;;;;;;;6209722;23;20107;-82
2021/07/05 10:44:44;;;;;;;5.03;4.03;;;;;;;;;;6212910;23;20025;-82
2021/07/05 10:47:10;;;;;;;6.15;4.10;;;;;;;;;;6209104;23;20202;-84
2021/07/05 10:49:46;;;;;;;5.57;5.05;;;;;;;;;;6208468;23;20411;-85
2021/07/05 10:52:15;;;;;;;6.40;4.80;;;;;;;;;;6204359;23;20035;-83
2021/07/05 10:54:44;;;;;;;8.05;5.40;;;;;;;;;;6207276;23;20075;-84
2021/07/05 10:57:14;;;;;;;10.35;5.72;;;;;;;;;;6211567;23;20318;-83
2021/07/05 10:59:42;;;;;;;6.43;5.43;;;;;;;;;;6210966;23;20083;-84
2021/07/05 11:02:29;;;;;;;11.13;5.15;;;;;;;;;;6209612;23;20272;-85
2021/07/05 11:04:55;;;;;;;6.72;4.78;;;;;;;;;;6209413;23;20039;-86
2021/07/05 11:07:45;;;;;;;8.55;6.20;;;;;;;;;;6208559;23;20598;-83
